sensor_id;sensor_type;location;lat;lon;timestamp;P1;durP1;ratioP1;P2;durP2;ratioP2
36303;SDS011;22335;49.800;8.596;2023-06-01T00:00:36;6.57;;;2.42;;
36303;SDS011;22335;49.800;8.596;2023-06-01T00:07:22;4.32;;;2.40;;
36303;SDS011;22335;49.800;8.596;2023-06-01T00:14:06;7.43;;;2.65;;
36303;SDS011;22335;49.800;8.596;2023-06-01T00:20:51;4.53;;;2.38;;
36303;SDS011;22335;49.800;8.596;2023-06-01T00:27:35;6.07;;;2.60;;
36303;SDS011;22335;49.800;8.596;2023-06-01T00:34:19;5.33;;;2.90;;
36303;SDS011;22335;49.800;8.596;2023-06-01T00:41:04;3.92;;;2.28;;
36303;SDS011;22335;49.800;8.596;2023-06-01T00:47:47;5.00;;;2.83;;
36303;SDS011;22335;49.800;8.596;2023-06-01T00:54:31;5.35;;;2.70;;
36303;SDS011;22335;49.800;8.596;2023-06-01T01:01:16;4.25;;;2.53;;
36303;SDS011;22335;49.800;8.596;2023-06-01T01:08:09;4.20;;;2.63;;
36303;SDS011;22335;49.800;8.596;2023-06-01T01:14:59;5.90;;;3.13;;
36303;SDS011;22335;49.800;8.596;2023-06-01T01:29:08;5.18;;;2.75;;
36303;SDS011;22335;49.800;8.596;2023-06-01T01:35:52;3.58;;;2.55;;
36303;SDS011;22335;49.800;8.596;2023-06-01T01:42:36;4.35;;;2.58;;
36303;SDS011;22335;49.800;8.596;2023-06-01T01:49:24;2.53;;;2.28;;
36303;SDS011;22335;49.800;8.596;2023-06-01T01:56:11;3.00;;;2.50;;
36303;SDS011;22335;49.800;8.596;2023-06-01T02:02:57;4.93;;;2.70;;
36303;SDS011;22335;49.800;8.596;2023-06-01T02:09:42;5.57;;;2.85;;
36303;SDS011;22335;49.800;8.596;2023-06-01T02:16:27;4.85;;;2.63;;
36303;SDS011;22335;49.800;8.596;2023-06-01T02:23:11;3.30;;;2.65;;
36303;SDS011;22335;49.800;8.596;2023-06-01T02:29:56;5.97;;;3.05;;
36303;SDS011;22335;49.800;8.596;2023-06-01T02:36:39;3.88;;;3.08;;
36303;SDS011;22335;49.800;8.596;2023-06-01T02:43:22;4.35;;;2.70;;
36303;SDS011;22335;49.800;8.596;2023-06-01T03:05:09;4.72;;;2.40;;
36303;SDS011;22335;49.800;8.596;2023-06-01T03:11:57;6.35;;;2.72;;
36303;SDS011;22335;49.800;8.596;2023-06-01T03:18:43;6.05;;;2.92;;
36303;SDS011;22335;49.800;8.596;2023-06-01T03:25:28;4.13;;;2.67;;
36303;SDS011;22335;49.800;8.596;2023-06-01T03:32:12;5.53;;;3.53;;
36303;SDS011;22335;49.800;8.596;2023-06-01T03:38:57;3.88;;;2.63;;
36303;SDS011;22335;49.800;8.596;2023-06-01T03:45:43;5.95;;;3.20;;
36303;SDS011;22335;49.800;8.596;2023-06-01T03:52:26;8.32;;;3.20;;
36303;SDS011;22335;49.800;8.596;2023-06-01T03:59:10;5.15;;;3.10;;
36303;SDS011;22335;49.800;8.596;2023-06-01T04:05:55;4.95;;;3.17;;
36303;SDS011;22335;49.800;8.596;2023-06-01T04:12:41;7.38;;;3.58;;
36303;SDS011;22335;49.800;8.596;2023-06-01T04:19:26;3.95;;;3.30;;
36303;SDS011;22335;49.800;8.596;2023-06-01T04:26:16;3.67;;;2.97;;
36303;SDS011;22335;49.800;8.596;2023-06-01T04:32:59;5.00;;;2.90;;
36303;SDS011;22335;49.800;8.596;2023-06-01T04:39:48;3.88;;;3.03;;
36303;SDS011;22335;49.800;8.596;2023-06-01T04:46:34;4.90;;;3.05;;
36303;SDS011;22335;49.800;8.596;2023-06-01T04:53:20;5.80;;;3.15;;
36303;SDS011;22335;49.800;8.596;2023-06-01T05:00:04;6.93;;;4.05;;
36303;SDS011;22335;49.800;8.596;2023-06-01T05:06:54;6.50;;;3.05;;
36303;SDS011;22335;49.800;8.596;2023-06-01T05:13:38;6.10;;;3.20;;
36303;SDS011;22335;49.800;8.596;2023-06-01T05:20:22;4.00;;;3.08;;
36303;SDS011;22335;49.800;8.596;2023-06-01T05:27:11;4.47;;;2.70;;
36303;SDS011;22335;49.800;8.596;2023-06-01T05:33:54;5.63;;;2.87;;
36303;SDS011;22335;49.800;8.596;2023-06-01T05:40:41;4.05;;;2.80;;
36303;SDS011;22335;49.800;8.596;2023-06-01T05:47:26;5.90;;;3.60;;
36303;SDS011;22335;49.800;8.596;2023-06-01T05:54:10;6.20;;;3.23;;
36303;SDS011;22335;49.800;8.596;2023-06-01T06:00:54;8.27;;;3.38;;
36303;SDS011;22335;49.800;8.596;2023-06-01T06:07:40;3.95;;;2.90;;
36303;SDS011;22335;49.800;8.596;2023-06-01T06:14:23;7.30;;;3.50;;
36303;SDS011;22335;49.800;8.596;2023-06-01T06:21:07;7.35;;;4.90;;
36303;SDS011;22335;49.800;8.596;2023-06-01T06:27:53;7.97;;;3.88;;
36303;SDS011;22335;49.800;8.596;2023-06-01T06:34:36;5.53;;;3.60;;
36303;SDS011;22335;49.800;8.596;2023-06-01T06:41:19;6.50;;;3.50;;
36303;SDS011;22335;49.800;8.596;2023-06-01T06:48:05;5.43;;;3.13;;
36303;SDS011;22335;49.800;8.596;2023-06-01T06:54:49;6.13;;;4.10;;
36303;SDS011;22335;49.800;8.596;2023-06-01T07:01:32;7.28;;;3.33;;
36303;SDS011;22335;49.800;8.596;2023-06-01T07:08:22;7.70;;;3.58;;
36303;SDS011;22335;49.800;8.596;2023-06-01T07:15:05;8.10;;;3.37;;
36303;SDS011;22335;49.800;8.596;2023-06-01T07:21:50;6.80;;;3.00;;
36303;SDS011;22335;49.800;8.596;2023-06-01T07:28:35;5.47;;;3.00;;
36303;SDS011;22335;49.800;8.596;2023-06-01T07:35:19;4.07;;;2.60;;
36303;SDS011;22335;49.800;8.596;2023-06-01T07:42:03;5.35;;;3.25;;
36303;SDS011;22335;49.800;8.596;2023-06-01T07:48:50;6.15;;;3.33;;
36303;SDS011;22335;49.800;8.596;2023-06-01T07:55:33;4.17;;;2.73;;
36303;SDS011;22335;49.800;8.596;2023-06-01T08:02:17;3.95;;;2.75;;
36303;SDS011;22335;49.800;8.596;2023-06-01T08:09:02;3.78;;;2.67;;
36303;SDS011;22335;49.800;8.596;2023-06-01T08:15:47;4.63;;;2.78;;
36303;SDS011;22335;49.800;8.596;2023-06-01T08:22:31;5.10;;;2.78;;
36303;SDS011;22335;49.800;8.596;2023-06-01T08:29:16;4.13;;;2.67;;
36303;SDS011;22335;49.800;8.596;2023-06-01T08:36:05;4.22;;;2.50;;
36303;SDS011;22335;49.800;8.596;2023-06-01T08:42:53;5.27;;;2.67;;
36303;SDS011;22335;49.800;8.596;2023-06-01T08:49:44;4.20;;;2.75;;
36303;SDS011;22335;49.800;8.596;2023-06-01T08:56:28;4.50;;;2.50;;
36303;SDS011;22335;49.800;8.596;2023-06-01T09:03:11;4.32;;;2.72;;
36303;SDS011;22335;49.800;8.596;2023-06-01T09:09:56;4.90;;;2.50;;
36303;SDS011;22335;49.800;8.596;2023-06-01T09:16:40;7.97;;;2.75;;
36303;SDS011;22335;49.800;8.596;2023-06-01T09:23:24;4.07;;;2.53;;
36303;SDS011;22335;49.800;8.596;2023-06-01T09:30:10;4.30;;;2.53;;
36303;SDS011;22335;49.800;8.596;2023-06-01T09:36:55;4.40;;;2.85;;
36303;SDS011;22335;49.800;8.596;2023-06-01T09:43:39;5.72;;;3.08;;
36303;SDS011;22335;49.800;8.596;2023-06-01T09:50:34;4.82;;;2.72;;
36303;SDS011;22335;49.800;8.596;2023-06-01T09:57:20;4.47;;;2.10;;
36303;SDS011;22335;49.800;8.596;2023-06-01T10:04:07;3.83;;;2.35;;
36303;SDS011;22335;49.800;8.596;2023-06-01T10:10:54;3.63;;;2.83;;
36303;SDS011;22335;49.800;8.596;2023-06-01T10:24:23;4.95;;;2.53;;
36303;SDS011;22335;49.800;8.596;2023-06-01T10:38:21;2.80;;;2.42;;
36303;SDS011;22335;49.800;8.596;2023-06-01T10:45:08;6.13;;;2.60;;
36303;SDS011;22335;49.800;8.596;2023-06-01T10:52:26;7.47;;;2.10;;
36303;SDS011;22335;49.800;8.596;2023-06-01T10:59:12;6.25;;;2.63;;
36303;SDS011;22335;49.800;8.596;2023-06-01T11:05:58;3.70;;;2.67;;
36303;SDS011;22335;49.800;8.596;2023-06-01T11:20:00;2.85;;;2.63;;
36303;SDS011;22335;49.800;8.596;2023-06-01T11:26:51;5.05;;;2.70;;
36303;SDS011;22335;49.800;8.596;2023-06-01T11:33:37;3.67;;;2.60;;
36303;SDS011;22335;49.800;8.596;2023-06-01T11:40:22;4.47;;;2.55;;
36303;SDS011;22335;49.800;8.596;2023-06-01T11:47:09;5.93;;;2.30;;
36303;SDS011;22335;49.800;8.596;2023-06-01T11:53:55;4.15;;;2.60;;
36303;SDS011;22335;49.800;8.596;2023-06-01T12:00:39;4.50;;;2.35;;
36303;SDS011;22335;49.800;8.596;2023-06-01T12:07:23;3.83;;;2.60;;
36303;SDS011;22335;49.800;8.596;2023-06-01T12:14:08;4.68;;;3.00;;
36303;SDS011;22335;49.800;8.596;2023-06-01T12:20:54;5.82;;;2.35;;
36303;SDS011;22335;49.800;8.596;2023-06-01T12:27:37;6.35;;;2.70;;
36303;SDS011;22335;49.800;8.596;2023-06-01T12:34:22;5.90;;;2.90;;
36303;SDS011;22335;49.800;8.596;2023-06-01T12:41:05;3.78;;;2.30;;
36303;SDS011;22335;49.800;8.596;2023-06-01T12:47:49;4.90;;;2.75;;
36303;SDS011;22335;49.800;8.596;2023-06-01T12:54:35;6.22;;;2.67;;
36303;SDS011;22335;49.800;8.596;2023-06-01T13:01:18;4.13;;;2.58;;
36303;SDS011;22335;49.800;8.596;2023-06-01T13:08:02;5.28;;;2.38;;
36303;SDS011;22335;49.800;8.596;2023-06-01T13:14:47;4.83;;;2.13;;
36303;SDS011;22335;49.800;8.596;2023-06-01T13:21:31;3.42;;;2.10;;
36303;SDS011;22335;49.800;8.596;2023-06-01T13:35:00;2.35;;;1.85;;
36303;SDS011;22335;49.800;8.596;2023-06-01T13:41:44;3.55;;;2.85;;
36303;SDS011;22335;49.800;8.596;2023-06-01T13:48:27;4.50;;;2.30;;
36303;SDS011;22335;49.800;8.596;2023-06-01T14:01:57;3.55;;;2.20;;
36303;SDS011;22335;49.800;8.596;2023-06-01T14:08:41;3.10;;;2.47;;
36303;SDS011;22335;49.800;8.596;2023-06-01T14:15:25;3.93;;;2.30;;
36303;SDS011;22335;49.800;8.596;2023-06-01T14:22:09;2.60;;;2.05;;
36303;SDS011;22335;49.800;8.596;2023-06-01T14:28:53;4.97;;;2.20;;
36303;SDS011;22335;49.800;8.596;2023-06-01T14:35:37;3.67;;;2.23;;
36303;SDS011;22335;49.800;8.596;2023-06-01T14:42:21;5.15;;;2.72;;
36303;SDS011;22335;49.800;8.596;2023-06-01T14:49:05;4.60;;;2.40;;
36303;SDS011;22335;49.800;8.596;2023-06-01T14:55:49;6.93;;;2.60;;
36303;SDS011;22335;49.800;8.596;2023-06-01T15:02:33;3.78;;;2.30;;
36303;SDS011;22335;49.800;8.596;2023-06-01T15:09:17;4.68;;;2.88;;
36303;SDS011;22335;49.800;8.596;2023-06-01T15:16:02;3.47;;;2.30;;
36303;SDS011;22335;49.800;8.596;2023-06-01T15:22:47;4.18;;;2.90;;
36303;SDS011;22335;49.800;8.596;2023-06-01T15:29:30;3.13;;;2.30;;
36303;SDS011;22335;49.800;8.596;2023-06-01T15:36:15;4.67;;;2.77;;
36303;SDS011;22335;49.800;8.596;2023-06-01T15:42:58;2.88;;;2.33;;
36303;SDS011;22335;49.800;8.596;2023-06-01T15:49:42;3.47;;;2.53;;
36303;SDS011;22335;49.800;8.596;2023-06-01T16:03:12;3.28;;;2.70;;
36303;SDS011;22335;49.800;8.596;2023-06-01T16:16:41;6.75;;;2.70;;
36303;SDS011;22335;49.800;8.596;2023-06-01T16:23:25;3.60;;;2.67;;
36303;SDS011;22335;49.800;8.596;2023-06-01T16:30:09;3.57;;;2.57;;
36303;SDS011;22335;49.800;8.596;2023-06-01T16:36:54;3.10;;;2.53;;
36303;SDS011;22335;49.800;8.596;2023-06-01T16:43:38;3.55;;;3.00;;
36303;SDS011;22335;49.800;8.596;2023-06-01T16:50:21;6.20;;;4.30;;
36303;SDS011;22335;49.800;8.596;2023-06-01T16:57:07;5.80;;;3.72;;
36303;SDS011;22335;49.800;8.596;2023-06-01T17:03:51;8.90;;;5.10;;
36303;SDS011;22335;49.800;8.596;2023-06-01T17:10:34;8.15;;;5.47;;
36303;SDS011;22335;49.800;8.596;2023-06-01T17:17:19;7.20;;;5.73;;
36303;SDS011;22335;49.800;8.596;2023-06-01T17:24:05;9.20;;;6.32;;
36303;SDS011;22335;49.800;8.596;2023-06-01T17:30:49;8.40;;;6.70;;
36303;SDS011;22335;49.800;8.596;2023-06-01T17:37:33;7.18;;;6.32;;
36303;SDS011;22335;49.800;8.596;2023-06-01T17:44:17;8.00;;;5.80;;
36303;SDS011;22335;49.800;8.596;2023-06-01T17:51:02;6.40;;;4.80;;
36303;SDS011;22335;49.800;8.596;2023-06-01T17:57:47;5.55;;;4.95;;
36303;SDS011;22335;49.800;8.596;2023-06-01T18:04:30;5.95;;;5.35;;
36303;SDS011;22335;49.800;8.596;2023-06-01T18:11:14;7.25;;;5.30;;
36303;SDS011;22335;49.800;8.596;2023-06-01T18:17:59;6.93;;;4.88;;
36303;SDS011;22335;49.800;8.596;2023-06-01T18:31:25;7.47;;;4.90;;
36303;SDS011;22335;49.800;8.596;2023-06-01T18:38:10;7.72;;;4.93;;
36303;SDS011;22335;49.800;8.596;2023-06-01T18:44:54;5.68;;;4.43;;
36303;SDS011;22335;49.800;8.596;2023-06-01T18:51:37;6.65;;;4.93;;
36303;SDS011;22335;49.800;8.596;2023-06-01T18:58:22;8.93;;;5.60;;
36303;SDS011;22335;49.800;8.596;2023-06-01T19:05:06;9.20;;;4.85;;
36303;SDS011;22335;49.800;8.596;2023-06-01T19:11:50;5.60;;;4.57;;
36303;SDS011;22335;49.800;8.596;2023-06-01T19:18:35;8.50;;;5.40;;
36303;SDS011;22335;49.800;8.596;2023-06-01T19:25:19;6.07;;;5.03;;
36303;SDS011;22335;49.800;8.596;2023-06-01T19:32:02;7.75;;;4.85;;
36303;SDS011;22335;49.800;8.596;2023-06-01T19:45:32;6.20;;;4.72;;
36303;SDS011;22335;49.800;8.596;2023-06-01T19:52:19;6.10;;;4.93;;
36303;SDS011;22335;49.800;8.596;2023-06-01T19:59:24;7.55;;;4.93;;
36303;SDS011;22335;49.800;8.596;2023-06-01T20:06:09;6.22;;;5.10;;
36303;SDS011;22335;49.800;8.596;2023-06-01T20:12:59;8.13;;;5.20;;
36303;SDS011;22335;49.800;8.596;2023-06-01T20:19:47;13.65;;;9.38;;
36303;SDS011;22335;49.800;8.596;2023-06-01T20:26:30;9.77;;;6.63;;
36303;SDS011;22335;49.800;8.596;2023-06-01T20:33:14;6.93;;;5.65;;
36303;SDS011;22335;49.800;8.596;2023-06-01T20:40:05;9.25;;;5.45;;
36303;SDS011;22335;49.800;8.596;2023-06-01T20:46:56;5.50;;;4.90;;
36303;SDS011;22335;49.800;8.596;2023-06-01T20:53:39;6.80;;;5.18;;
36303;SDS011;22335;49.800;8.596;2023-06-01T21:00:25;8.33;;;5.53;;
36303;SDS011;22335;49.800;8.596;2023-06-01T21:07:09;7.28;;;5.28;;
36303;SDS011;22335;49.800;8.596;2023-06-01T21:13:53;8.05;;;5.18;;
36303;SDS011;22335;49.800;8.596;2023-06-01T21:20:42;6.20;;;5.20;;
36303;SDS011;22335;49.800;8.596;2023-06-01T21:27:26;7.68;;;5.07;;
36303;SDS011;22335;49.800;8.596;2023-06-01T21:34:10;5.97;;;5.30;;
36303;SDS011;22335;49.800;8.596;2023-06-01T21:40:55;8.93;;;5.85;;
36303;SDS011;22335;49.800;8.596;2023-06-01T21:47:38;8.37;;;5.70;;
36303;SDS011;22335;49.800;8.596;2023-06-01T21:54:22;6.57;;;5.32;;
36303;SDS011;22335;49.800;8.596;2023-06-01T22:01:07;7.97;;;5.80;;
36303;SDS011;22335;49.800;8.596;2023-06-01T22:07:51;7.10;;;5.65;;
36303;SDS011;22335;49.800;8.596;2023-06-01T22:14:35;10.30;;;6.40;;
36303;SDS011;22335;49.800;8.596;2023-06-01T22:21:20;7.10;;;6.05;;
36303;SDS011;22335;49.800;8.596;2023-06-01T22:28:04;9.23;;;6.57;;
36303;SDS011;22335;49.800;8.596;2023-06-01T22:34:48;8.70;;;6.10;;
36303;SDS011;22335;49.800;8.596;2023-06-01T22:41:33;10.40;;;6.72;;
36303;SDS011;22335;49.800;8.596;2023-06-01T22:48:16;8.10;;;6.80;;
36303;SDS011;22335;49.800;8.596;2023-06-01T22:55:00;6.70;;;6.00;;
36303;SDS011;22335;49.800;8.596;2023-06-01T23:01:48;7.05;;;6.35;;
36303;SDS011;22335;49.800;8.596;2023-06-01T23:08:32;9.90;;;6.53;;
36303;SDS011;22335;49.800;8.596;2023-06-01T23:15:17;7.53;;;6.75;;
36303;SDS011;22335;49.800;8.596;2023-06-01T23:22:03;7.68;;;6.68;;
36303;SDS011;22335;49.800;8.596;2023-06-01T23:28:53;7.32;;;6.55;;
36303;SDS011;22335;49.800;8.596;2023-06-01T23:35:38;7.75;;;6.97;;
36303;SDS011;22335;49.800;8.596;2023-06-01T23:42:23;8.00;;;7.20;;
36303;SDS011;22335;49.800;8.596;2023-06-01T23:49:07;7.93;;;7.05;;
36303;SDS011;22335;49.800;8.596;2023-06-01T23:55:51;8.10;;;7.30;;
